Decoded Metar for EIME (CASEMENT in IRELAND) (IATA:N/A) | Meteo·Mobile Aviation Weather
aviador You're here:

EIME Decoded Metar

CASEMENT in IRELAND
Report Time2018-12-17 09:00:00
UTC Time2018-12-17 09:31:05
Flight Rules vfr VFR
Wind200° at 13 kt
W.Decomp.*RWY 23: 11.8 kt HW 5.5 kt LCW
RWY 29: 1.1 kt HW 13 kt LCW
W.Rank200° ranks 7
Current wind is below 200° avg. (13.0)
Visibility9999 m
Phenomena:N/A
Clouds:Few 018 Hf
Broken 180 Hf
Expected CloudBase > 1,200 ft AGL from Temp-Dew spread
Ceiling18,000 ft
Temp08°C (ISA -6)
Dew Point05°C (82% RH)
AAT2.2°C
QNH1009 hPa
Density Alt-207 ft
Elevation305 ft
Report Wrong Elevation
Raw Report
METAR EIME 170900Z 20013KT 9999 FEW018 BKN180 08/05 Q1009=

Extra information for EIME:More info

Metar Taf Metar & Taf Last 4 Metars F.Rules Stats Wind Profile Meteogram Temp Stats Airport Information Weather charts Add Link Nearby VenuesMetar ALERT Operation Metar Decoded Social comments